EGCN

Details ICAO EGCN (DSA)
Name Doncaster Sheffield
Region United Kingdom
Timezone Europe/London (UTC+1.0)
Plans Departing 321
Arriving 216
Stats Elevation 55 ft / 17 m (AMSL)
Location 53.475300° -1.004130°
Runways 1
Magnetic Variation 0.867° W
Sunrise 2018-10-17 06:35:23 UTC / 2018-10-17 07:35:23 Local
Sunset 2018-10-17 17:05:41 UTC / 2018-10-17 18:05:41 Local
Advertisement - Login to hide

Runways

ID Width Length Bearing (true/mag) Surface Threshold Overrun Markings Lighting
02 197 ft / 60 m 9,488 ft / 2,892 m 17.63° / 18.49° ASPHALT 499 ft / 152 m 0 ft / 0 m PREC-APP EDGE THRESHOLD MALS REIL-OMNI
20 197 ft / 60 m 9,488 ft / 2,892 m 197.64° / 198.50° ASPHALT 505 ft / 154 m 0 ft / 0 m APP EDGE THRESHOLD MALS REIL-OMNI

Approach Navaids

Runway Type Ident Frequency Range Bearing (true/mag) Slope Elevation
02 LOC-ILS IFIN 110.95 MHz 25 nm / 46 km 17.63° / 18.50° - 55 ft / 17 m (AMSL)
02 GS IFIN 110.95 MHz 25 nm / 46 km 17.63° / 18.50° 3.10° 55 ft / 17 m (AMSL)
20 DME IFNL 110.95 MHz 18 nm / 33 km - - 11 ft / 3 m (AMSL)
20 LOC-ILS IFNL 110.95 MHz 25 nm / 46 km 197.63° / 198.50° - 55 ft / 17 m (AMSL)
20 GS IFNL 110.95 MHz 25 nm / 46 km 197.63° / 198.50° 3.00° 55 ft / 17 m (AMSL)

Map

Weather


0- 5 10 15 20 25 30 35+ Temperature / °C

Clouds and Precipitation
Forecast for 2018-10-17 18:00 UTC. Updated 5 hours ago

Ground ~20,000 ft ~40,000 ft Winds

METAR

EGCN 172020Z 29006KT 9999 FEW031 10/09 Q1025

TAF

TAF EGCN 171657Z 1718/1818 29006KT 9999 FEW025= TAF EGGP 171657Z 1718/1818 35006KT 9999 FEW040 PROB30 1803/1809 9000

Frequencies

Recorded 134.95 MHz Doncaster Info
Tower 128.77 MHz Doncaster Tower
Warning: Do not use this data for real-world aviation or navigation. No guarantee of current accuracy is given.